createdAt,value
2023-01-08T00:00:14.084Z,3.10
2023-01-08T00:02:41.068Z,3.40
2023-01-08T00:05:11.399Z,3.13
2023-01-08T00:07:38.507Z,3.17
2023-01-08T00:10:06.398Z,3.10
2023-01-08T00:12:34.475Z,3.50
2023-01-08T00:15:01.524Z,3.30
2023-01-08T00:17:28.503Z,4.47
2023-01-08T00:19:55.463Z,3.13
2023-01-08T00:22:22.349Z,3.30
2023-01-08T00:24:49.524Z,3.20
2023-01-08T00:27:16.557Z,3.10
2023-01-08T00:29:43.468Z,4.07
2023-01-08T00:32:10.413Z,2.90
2023-01-08T00:34:37.318Z,4.17
2023-01-08T00:37:04.197Z,3.10
2023-01-08T00:39:31.119Z,3.10
2023-01-08T00:41:58.046Z,3.43
2023-01-08T00:44:24.974Z,2.93
2023-01-08T00:46:52.102Z,3.77
2023-01-08T00:49:19.081Z,3.37
2023-01-08T00:51:45.977Z,3.47
2023-01-08T00:54:13.650Z,3.20
2023-01-08T00:56:40.541Z,3.00
2023-01-08T00:59:07.511Z,3.30
2023-01-08T01:01:34.950Z,3.47
2023-01-08T01:04:02.433Z,3.10
2023-01-08T01:06:30.203Z,3.97
2023-01-08T01:08:57.407Z,3.97
2023-01-08T01:11:28.424Z,3.30
2023-01-08T01:13:57.400Z,3.93
2023-01-08T01:16:25.961Z,3.50
2023-01-08T01:18:54.503Z,3.50
2023-01-08T01:21:29.053Z,3.00
2023-01-08T01:24:00.847Z,3.73
2023-01-08T01:26:28.455Z,3.17
2023-01-08T01:28:58.394Z,3.50
2023-01-08T01:31:30.858Z,3.73
2023-01-08T01:33:58.684Z,4.03
2023-01-08T01:36:27.215Z,3.63
2023-01-08T01:38:57.798Z,3.40
2023-01-08T01:41:36.555Z,3.77
2023-01-08T01:44:45.691Z,3.33
2023-01-08T01:47:37.646Z,3.97
2023-01-08T01:50:07.552Z,3.70
2023-01-08T01:52:45.720Z,3.73
2023-01-08T01:55:15.833Z,3.80
2023-01-08T01:57:53.218Z,3.93
2023-01-08T02:00:21.011Z,3.40
2023-01-08T02:02:48.667Z,4.00
2023-01-08T02:05:16.129Z,3.60
2023-01-08T02:08:10.925Z,4.10
2023-01-08T02:10:53.568Z,3.60
2023-01-08T02:13:39.646Z,3.60
2023-01-08T02:16:29.561Z,4.13
2023-01-08T02:19:38.426Z,4.40
2023-01-08T02:22:32.249Z,3.57
2023-01-08T02:25:38.060Z,4.27
2023-01-08T02:28:12.652Z,4.07
2023-01-08T02:30:39.901Z,4.03
2023-01-08T02:33:06.901Z,4.13
2023-01-08T02:36:26.556Z,4.50
2023-01-08T02:39:19.511Z,4.40
2023-01-08T02:42:35.239Z,4.23
2023-01-08T02:45:42.524Z,4.77
2023-01-08T02:48:14.452Z,4.53
2023-01-08T02:50:59.445Z,4.17
2023-01-08T02:53:36.348Z,5.17
2023-01-08T02:56:12.578Z,5.23
2023-01-08T02:58:44.356Z,5.83
2023-01-08T03:01:16.413Z,5.20
2023-01-08T03:03:54.389Z,5.20
2023-01-08T03:06:22.640Z,5.00
2023-01-08T03:08:53.881Z,5.10
2023-01-08T03:11:28.046Z,5.73
2023-01-08T03:14:11.144Z,5.60
2023-01-08T03:17:10.636Z,5.40
2023-01-08T03:19:48.893Z,4.70
2023-01-08T03:22:20.118Z,4.77
2023-01-08T03:24:54.369Z,5.63
2023-01-08T03:27:29.469Z,4.67
2023-01-08T03:30:00.397Z,5.13
2023-01-08T03:32:32.598Z,5.23
2023-01-08T03:35:05.445Z,5.17
2023-01-08T03:37:45.547Z,5.30
2023-01-08T03:40:26.198Z,5.87
2023-01-08T03:42:53.451Z,5.47
2023-01-08T03:45:24.607Z,5.23
2023-01-08T03:47:55.118Z,5.07
2023-01-08T03:50:29.335Z,4.87
2023-01-08T03:52:56.349Z,5.03
2023-01-08T03:55:23.324Z,5.10
2023-01-08T03:57:50.208Z,5.50
2023-01-08T04:00:17.334Z,5.90
2023-01-08T04:02:44.383Z,5.13
2023-01-08T04:05:11.963Z,4.90
2023-01-08T04:07:39.190Z,5.33
2023-01-08T04:10:07.503Z,5.30
2023-01-08T04:12:34.417Z,4.70
2023-01-08T04:15:01.396Z,5.70
2023-01-08T04:17:28.422Z,5.37
2023-01-08T04:19:55.364Z,4.90
2023-01-08T04:22:22.360Z,5.90
2023-01-08T04:24:49.428Z,5.63
2023-01-08T04:27:16.434Z,5.27
2023-01-08T04:29:43.427Z,5.23
2023-01-08T04:32:10.698Z,5.40
2023-01-08T04:34:37.629Z,5.00
2023-01-08T04:37:04.733Z,5.60
2023-01-08T04:39:31.785Z,6.17
2023-01-08T04:41:58.783Z,6.07
2023-01-08T04:44:25.721Z,5.50
2023-01-08T04:46:52.608Z,5.97
2023-01-08T04:49:19.705Z,5.50
2023-01-08T04:51:46.621Z,5.63
2023-01-08T04:54:13.713Z,5.87
2023-01-08T04:56:40.701Z,5.70
2023-01-08T04:59:07.614Z,5.80
2023-01-08T05:01:34.991Z,5.20
2023-01-08T05:04:05.112Z,6.50
2023-01-08T05:06:33.301Z,5.70
2023-01-08T05:09:00.399Z,5.50
2023-01-08T05:11:27.479Z,5.20
2023-01-08T05:13:55.071Z,5.70
2023-01-08T05:16:23.234Z,5.33
2023-01-08T05:18:50.786Z,6.00
2023-01-08T05:21:18.356Z,5.73
2023-01-08T05:23:48.112Z,6.40
2023-01-08T05:26:20.362Z,5.70
2023-01-08T05:28:47.634Z,4.80
2023-01-08T05:31:16.302Z,5.33
2023-01-08T05:33:43.485Z,5.47
2023-01-08T05:36:12.939Z,5.40
2023-01-08T05:38:40.985Z,4.93
2023-01-08T05:41:09.613Z,5.37
2023-01-08T05:43:37.272Z,4.70
2023-01-08T05:46:06.027Z,4.60
2023-01-08T05:48:35.856Z,5.13
2023-01-08T05:51:04.027Z,4.90
2023-01-08T05:53:32.971Z,4.73
2023-01-08T05:56:10.442Z,4.67
2023-01-08T05:58:38.908Z,5.47
2023-01-08T06:01:15.909Z,5.23
2023-01-08T06:03:43.661Z,4.60
2023-01-08T06:06:12.725Z,4.60
2023-01-08T06:08:39.992Z,4.13
2023-01-08T06:11:11.892Z,5.87
2023-01-08T06:13:44.268Z,4.23
2023-01-08T06:16:13.248Z,4.67
2023-01-08T06:18:40.761Z,5.00
2023-01-08T06:21:07.825Z,4.10
2023-01-08T06:23:35.129Z,5.30
2023-01-08T06:26:06.134Z,4.30
2023-01-08T06:28:34.037Z,4.60
2023-01-08T06:31:03.833Z,4.40
2023-01-08T06:33:32.016Z,4.53
2023-01-08T06:36:05.339Z,4.10
2023-01-08T06:38:37.694Z,4.40
2023-01-08T06:41:08.798Z,3.87
2023-01-08T06:43:38.172Z,4.00
2023-01-08T06:46:08.641Z,4.07
2023-01-08T06:48:37.152Z,5.33
2023-01-08T06:51:06.386Z,4.50
2023-01-08T06:53:33.646Z,4.00
2023-01-08T06:56:00.567Z,6.30
2023-01-08T06:58:30.198Z,4.40
2023-01-08T07:00:58.856Z,3.63
2023-01-08T07:03:26.052Z,4.50
2023-01-08T07:05:53.149Z,3.87
2023-01-08T07:08:20.205Z,3.80
2023-01-08T07:10:47.170Z,3.87
2023-01-08T07:13:14.415Z,4.37
2023-01-08T07:15:43.013Z,4.00
2023-01-08T07:18:12.477Z,4.60
2023-01-08T07:20:40.239Z,3.67
2023-01-08T07:23:11.980Z,4.63
2023-01-08T07:25:39.008Z,3.80
2023-01-08T07:28:10.672Z,3.97
2023-01-08T07:30:37.712Z,3.90
2023-01-08T07:33:04.697Z,4.50
2023-01-08T07:35:31.607Z,4.83
2023-01-08T07:37:58.662Z,4.90
2023-01-08T07:40:25.727Z,3.93
2023-01-08T07:43:05.017Z,3.90
2023-01-08T07:45:32.146Z,4.37
2023-01-08T07:48:00.904Z,4.03
2023-01-08T07:50:31.563Z,4.57
2023-01-08T07:53:00.894Z,3.80
2023-01-08T07:55:30.680Z,4.33
2023-01-08T07:57:57.724Z,4.30
2023-01-08T08:00:24.995Z,5.00
2023-01-08T08:02:52.039Z,4.23
2023-01-08T08:05:19.155Z,4.43
2023-01-08T08:07:46.067Z,4.10
2023-01-08T08:10:13.046Z,4.73
2023-01-08T08:12:39.911Z,4.80
2023-01-08T08:15:08.440Z,4.30
2023-01-08T08:17:35.434Z,4.57
2023-01-08T08:20:02.573Z,5.20
2023-01-08T08:22:30.375Z,5.00
2023-01-08T08:24:57.252Z,4.80
2023-01-08T08:27:24.681Z,4.50
2023-01-08T08:29:51.621Z,4.63
2023-01-08T08:32:18.526Z,4.13
2023-01-08T08:34:45.418Z,4.73
2023-01-08T08:37:12.361Z,4.80
2023-01-08T08:39:39.291Z,4.67
2023-01-08T08:42:06.299Z,4.90
2023-01-08T08:44:33.280Z,4.53
2023-01-08T08:47:00.585Z,5.23
2023-01-08T08:49:27.637Z,4.27
2023-01-08T08:51:54.495Z,4.10
2023-01-08T08:54:21.429Z,4.27
2023-01-08T08:56:49.126Z,4.80
2023-01-08T08:59:16.009Z,5.27
2023-01-08T09:01:43.160Z,4.20
2023-01-08T09:04:10.154Z,3.80
2023-01-08T09:06:37.200Z,4.33
2023-01-08T09:09:04.536Z,4.10
2023-01-08T09:11:32.826Z,3.80
2023-01-08T09:14:00.185Z,3.93
2023-01-08T09:16:27.137Z,4.30
2023-01-08T09:18:54.088Z,4.40
2023-01-08T09:21:20.994Z,3.90
2023-01-08T09:23:49.820Z,4.50
2023-01-08T09:26:16.858Z,4.17
2023-01-08T09:28:43.786Z,5.00
2023-01-08T09:31:10.861Z,4.37
2023-01-08T09:33:37.830Z,4.53
2023-01-08T09:36:08.369Z,3.80
2023-01-08T09:38:35.629Z,4.20
2023-01-08T09:41:13.725Z,5.00
2023-01-08T09:43:47.027Z,4.70
2023-01-08T09:46:19.813Z,4.50
2023-01-08T09:48:47.332Z,4.40
2023-01-08T09:51:19.717Z,4.37
2023-01-08T09:53:56.173Z,3.93
2023-01-08T09:56:23.442Z,5.00
2023-01-08T09:58:59.837Z,4.43
2023-01-08T10:01:37.052Z,4.30
2023-01-08T10:04:23.091Z,4.23
2023-01-08T10:07:21.856Z,4.83
2023-01-08T10:09:50.414Z,4.23
2023-01-08T10:12:31.815Z,4.53
2023-01-08T10:15:16.069Z,4.40
2023-01-08T10:18:07.374Z,4.40
2023-01-08T10:20:34.717Z,5.23
2023-01-08T10:23:19.762Z,4.20
2023-01-08T10:25:51.637Z,4.53
2023-01-08T10:28:37.978Z,6.27
2023-01-08T10:31:17.138Z,4.70
2023-01-08T10:33:49.424Z,5.33
2023-01-08T10:36:24.561Z,5.00
2023-01-08T10:39:01.553Z,4.80
2023-01-08T10:41:30.642Z,5.43
2023-01-08T10:44:07.533Z,4.67
2023-01-08T10:46:48.282Z,4.97
2023-01-08T10:49:34.568Z,5.13
2023-01-08T10:52:03.125Z,5.30
2023-01-08T10:54:41.257Z,5.07
2023-01-08T10:57:30.792Z,5.23
2023-01-08T10:59:57.839Z,4.80
2023-01-08T11:02:38.894Z,5.77
2023-01-08T11:05:11.163Z,6.00
2023-01-08T11:07:40.235Z,8.70
2023-01-08T11:10:23.076Z,6.13
2023-01-08T11:13:10.456Z,5.83
2023-01-08T11:16:06.609Z,5.57
2023-01-08T11:18:49.517Z,5.90
2023-01-08T11:21:36.581Z,6.60
2023-01-08T11:24:35.155Z,6.40
2023-01-08T11:27:28.657Z,6.03
2023-01-08T11:30:24.735Z,5.23
2023-01-08T11:33:06.271Z,6.20
2023-01-08T11:36:11.716Z,6.33
2023-01-08T11:43:07.756Z,5.50
2023-01-08T11:46:51.517Z,4.80
2023-01-08T11:49:54.937Z,4.87
2023-01-08T11:53:03.215Z,4.20
2023-01-08T11:55:50.521Z,5.10
2023-01-08T11:59:35.697Z,5.13
2023-01-08T12:02:46.193Z,5.13
2023-01-08T12:05:30.267Z,4.97
2023-01-08T12:08:26.351Z,4.60
2023-01-08T12:10:58.685Z,7.53
2023-01-08T12:14:28.218Z,5.70
2023-01-08T12:18:02.923Z,5.47
2023-01-08T12:21:01.828Z,5.03
2023-01-08T12:23:53.680Z,5.30
2023-01-08T12:26:31.040Z,6.40
2023-01-08T12:29:40.969Z,5.20
2023-01-08T12:32:36.288Z,5.13
2023-01-08T12:35:25.018Z,4.63
2023-01-08T12:38:30.962Z,5.33
2023-01-08T12:41:16.388Z,4.87
2023-01-08T12:44:10.111Z,5.33
2023-01-08T12:46:44.059Z,5.33
2023-01-08T12:49:32.822Z,8.10
2023-01-08T12:52:16.499Z,6.57
2023-01-08T12:55:36.409Z,5.70
2023-01-08T12:58:58.780Z,7.33
2023-01-08T13:01:32.520Z,6.50
2023-01-08T13:04:04.767Z,4.83
2023-01-08T13:06:32.391Z,5.20
2023-01-08T13:09:01.644Z,6.10
2023-01-08T13:11:38.442Z,4.67
2023-01-08T13:14:13.766Z,5.00
2023-01-08T13:16:47.306Z,6.03
2023-01-08T13:19:28.665Z,6.87
2023-01-08T13:22:00.577Z,6.70
2023-01-08T13:24:44.614Z,5.17
2023-01-08T13:27:17.389Z,6.23
2023-01-08T13:29:51.804Z,7.53
2023-01-08T13:32:48.815Z,5.40
2023-01-08T13:35:15.805Z,5.63
2023-01-08T13:38:11.559Z,5.77
2023-01-08T13:40:50.159Z,5.33
2023-01-08T13:43:41.793Z,5.83
2023-01-08T13:46:20.132Z,6.50
2023-01-08T13:49:23.649Z,6.80
2023-01-08T13:51:51.278Z,7.77
2023-01-08T13:54:40.307Z,6.20
2023-01-08T13:57:20.047Z,5.70
2023-01-08T13:59:59.057Z,5.80
2023-01-08T14:02:50.210Z,5.03
2023-01-08T14:05:28.393Z,5.87
2023-01-08T14:07:57.000Z,6.03
2023-01-08T14:10:27.089Z,5.77
2023-01-08T14:13:07.146Z,5.93
2023-01-08T14:15:38.049Z,6.23
2023-01-08T14:18:06.364Z,6.60
2023-01-08T14:20:41.085Z,6.03
2023-01-08T14:23:26.430Z,6.43
2023-01-08T14:25:54.710Z,6.17
2023-01-08T14:28:23.508Z,6.83
2023-01-08T14:30:55.888Z,6.27
2023-01-08T14:33:50.581Z,5.20
2023-01-08T14:36:21.178Z,5.07
2023-01-08T14:38:52.331Z,5.23
2023-01-08T14:42:01.373Z,5.43
2023-01-08T14:44:36.725Z,5.80
2023-01-08T14:47:18.013Z,5.60
2023-01-08T14:49:54.767Z,6.27
2023-01-08T14:52:22.680Z,6.10
2023-01-08T14:55:00.209Z,6.00
2023-01-08T14:57:28.965Z,5.90
2023-01-08T15:00:02.062Z,5.23
2023-01-08T15:02:36.789Z,6.17
2023-01-08T15:05:27.447Z,5.70
2023-01-08T15:08:22.801Z,5.70
2023-01-08T15:11:15.515Z,5.23
2023-01-08T15:13:42.900Z,7.00
2023-01-08T15:16:39.031Z,7.07
2023-01-08T15:19:15.537Z,6.80
2023-01-08T15:21:52.519Z,6.50
2023-01-08T15:24:39.288Z,6.20
2023-01-08T15:27:10.595Z,6.47
2023-01-08T15:29:58.988Z,7.10
2023-01-08T15:32:37.344Z,7.50
2023-01-08T15:35:25.832Z,6.47
2023-01-08T15:37:52.999Z,6.47
2023-01-08T15:40:19.984Z,6.50
2023-01-08T15:43:05.967Z,6.70
2023-01-08T15:45:33.024Z,7.13
2023-01-08T15:48:00.643Z,9.37
2023-01-08T15:50:36.462Z,8.90
2023-01-08T15:53:10.564Z,7.50
2023-01-08T15:55:37.656Z,7.47
2023-01-08T15:58:04.883Z,7.90
2023-01-08T16:00:33.740Z,8.37
2023-01-08T16:03:01.175Z,7.40
2023-01-08T16:05:30.847Z,7.80
2023-01-08T16:07:57.925Z,9.93
2023-01-08T16:10:25.133Z,7.23
2023-01-08T16:12:52.687Z,8.17
2023-01-08T16:15:19.725Z,10.50
2023-01-08T16:17:46.788Z,8.17
2023-01-08T16:20:15.411Z,7.33
2023-01-08T16:22:42.391Z,7.30
2023-01-08T16:25:09.964Z,8.20
2023-01-08T16:27:41.052Z,7.30
2023-01-08T16:30:17.142Z,6.93
2023-01-08T16:32:46.694Z,8.33
2023-01-08T16:35:13.736Z,6.80
2023-01-08T16:37:40.885Z,7.40
2023-01-08T16:40:09.909Z,6.40
2023-01-08T16:42:37.678Z,6.60
2023-01-08T16:45:06.860Z,6.60
2023-01-08T16:47:39.473Z,6.93
2023-01-08T16:50:10.604Z,7.00
2023-01-08T16:52:39.081Z,7.20
2023-01-08T16:55:07.851Z,6.60
2023-01-08T16:57:45.876Z,8.30
2023-01-08T17:00:14.500Z,6.90
2023-01-08T17:02:41.666Z,6.90
2023-01-08T17:05:09.490Z,7.83
2023-01-08T17:07:36.524Z,6.80
2023-01-08T17:10:04.580Z,6.07
2023-01-08T17:12:31.608Z,7.00
2023-01-08T17:14:58.641Z,7.10
2023-01-08T17:17:25.933Z,6.57
2023-01-08T17:19:55.663Z,5.73
2023-01-08T17:22:22.772Z,6.17
2023-01-08T17:24:49.792Z,5.60
2023-01-08T17:27:16.953Z,6.57
2023-01-08T17:29:43.944Z,6.37
2023-01-08T17:32:12.088Z,6.10
2023-01-08T17:34:39.167Z,6.57
2023-01-08T17:37:06.885Z,5.50
2023-01-08T17:39:33.990Z,6.00
2023-01-08T17:42:19.715Z,5.97
2023-01-08T17:44:46.785Z,5.60
2023-01-08T17:47:13.732Z,5.70
2023-01-08T17:49:40.691Z,5.60
2023-01-08T17:52:09.761Z,5.57
2023-01-08T17:54:37.944Z,14.73
2023-01-08T17:57:04.865Z,5.30
2023-01-08T17:59:31.934Z,5.60
2023-01-08T18:01:59.067Z,5.50
2023-01-08T18:04:26.487Z,5.60
2023-01-08T18:06:53.689Z,5.20
2023-01-08T18:09:21.280Z,5.10
2023-01-08T18:11:48.471Z,5.33
2023-01-08T18:14:16.004Z,6.20
2023-01-08T18:16:46.186Z,4.93
2023-01-08T18:19:14.190Z,5.40
2023-01-08T18:21:41.491Z,5.40
2023-01-08T18:24:09.850Z,5.47
2023-01-08T18:26:40.240Z,4.87
2023-01-08T18:29:07.614Z,4.73
2023-01-08T18:31:35.383Z,5.60
2023-01-08T18:34:03.811Z,4.70
2023-01-08T18:36:31.082Z,5.10
2023-01-08T18:38:58.156Z,5.13
2023-01-08T18:41:43.841Z,5.07
2023-01-08T18:44:11.932Z,5.20
2023-01-08T18:46:41.916Z,5.07
2023-01-08T18:49:08.870Z,5.80
2023-01-08T18:51:35.885Z,4.57
2023-01-08T18:54:04.448Z,4.97
2023-01-08T18:56:35.008Z,4.30
2023-01-08T18:59:05.017Z,5.30
2023-01-08T19:01:35.085Z,4.53
2023-01-08T19:04:03.272Z,4.80
2023-01-08T19:06:30.456Z,4.90
2023-01-08T19:09:00.934Z,6.20
2023-01-08T19:11:28.144Z,4.40
2023-01-08T19:13:57.841Z,5.30
2023-01-08T19:16:34.085Z,4.67
2023-01-08T19:19:01.095Z,5.57
2023-01-08T19:21:28.154Z,6.00
2023-01-08T19:23:55.295Z,4.63
2023-01-08T19:26:22.617Z,5.23
2023-01-08T19:28:49.601Z,4.70
2023-01-08T19:31:18.985Z,5.10
2023-01-08T19:33:46.716Z,5.13
2023-01-08T19:36:16.365Z,5.03
2023-01-08T19:38:45.671Z,4.87
2023-01-08T19:41:32.450Z,4.90
2023-01-08T19:44:00.291Z,4.30
2023-01-08T19:46:28.293Z,4.50
2023-01-08T19:49:01.488Z,4.93
2023-01-08T19:51:32.708Z,4.93
2023-01-08T19:54:05.284Z,4.57
2023-01-08T19:56:32.728Z,4.37
2023-01-08T19:59:00.004Z,4.97
2023-01-08T20:01:29.149Z,4.90
2023-01-08T20:04:00.000Z,5.03
2023-01-08T20:09:22.657Z,4.83
2023-01-08T20:11:50.034Z,4.67
2023-01-08T20:14:20.984Z,5.03
2023-01-08T20:16:48.265Z,4.63
2023-01-08T20:19:15.458Z,5.33
2023-01-08T20:21:42.598Z,5.00
2023-01-08T20:24:15.988Z,5.10
2023-01-08T20:26:46.238Z,5.87
2023-01-08T20:29:16.969Z,4.87
2023-01-08T20:31:44.773Z,4.67
2023-01-08T20:34:16.243Z,5.50
2023-01-08T20:36:45.406Z,5.63
2023-01-08T20:39:16.778Z,5.47
2023-01-08T20:41:55.269Z,5.53
2023-01-08T20:44:28.591Z,4.93
2023-01-08T20:46:55.600Z,5.20
2023-01-08T20:49:25.167Z,5.90
2023-01-08T20:51:58.362Z,6.20
2023-01-08T20:54:27.832Z,6.10
2023-01-08T20:57:00.173Z,6.07
2023-01-08T20:59:28.240Z,6.00
2023-01-08T21:01:57.063Z,5.57
2023-01-08T21:04:24.943Z,6.10
2023-01-08T21:06:51.926Z,6.70
2023-01-08T21:09:18.848Z,6.00
2023-01-08T21:11:45.869Z,6.23
2023-01-08T21:14:12.946Z,6.30
2023-01-08T21:16:40.624Z,6.30
2023-01-08T21:19:10.342Z,6.00
2023-01-08T21:21:40.134Z,6.13
2023-01-08T21:24:12.005Z,6.37
2023-01-08T21:26:39.949Z,5.80
2023-01-08T21:29:10.206Z,5.80
2023-01-08T21:31:38.667Z,6.00
2023-01-08T21:34:08.493Z,5.70
2023-01-08T21:36:35.781Z,5.60
2023-01-08T21:39:03.327Z,6.40
2023-01-08T21:41:51.092Z,6.13
2023-01-08T21:44:41.680Z,5.53
2023-01-08T21:47:14.330Z,5.80
2023-01-08T21:49:41.442Z,5.40
2023-01-08T21:52:28.423Z,5.30
2023-01-08T21:54:58.008Z,6.17
2023-01-08T21:57:27.824Z,5.70
2023-01-08T21:59:56.114Z,5.90
2023-01-08T22:02:25.235Z,5.67
2023-01-08T22:04:56.163Z,5.23
2023-01-08T22:07:25.794Z,5.10
2023-01-08T22:09:53.433Z,6.00
2023-01-08T22:12:22.636Z,5.63
2023-01-08T22:14:53.815Z,5.90
2023-01-08T22:17:26.091Z,5.20
2023-01-08T22:19:53.869Z,5.67
2023-01-08T22:22:20.887Z,4.97
2023-01-08T22:24:47.936Z,5.47
2023-01-08T22:27:17.295Z,5.40
2023-01-08T22:29:44.272Z,5.77
2023-01-08T22:32:11.190Z,5.73
2023-01-08T22:34:38.231Z,5.20
2023-01-08T22:37:05.314Z,4.97
2023-01-08T22:39:32.408Z,5.50
2023-01-08T22:41:59.571Z,5.47
2023-01-08T22:44:26.627Z,4.80
2023-01-08T22:46:58.981Z,5.30
2023-01-08T22:49:26.089Z,5.33
2023-01-08T22:51:53.529Z,4.90
2023-01-08T22:54:20.622Z,5.50
2023-01-08T22:56:47.920Z,5.27
2023-01-08T22:59:15.116Z,5.10
2023-01-08T23:01:42.070Z,4.67
2023-01-08T23:04:09.959Z,5.30
2023-01-08T23:06:40.020Z,4.93
2023-01-08T23:09:07.685Z,5.13
2023-01-08T23:11:35.031Z,4.87
2023-01-08T23:14:02.069Z,5.63
2023-01-08T23:16:29.394Z,6.47
2023-01-08T23:18:57.632Z,5.93
2023-01-08T23:21:26.471Z,5.83
2023-01-08T23:23:59.685Z,4.87
2023-01-08T23:26:30.074Z,5.57
2023-01-08T23:28:59.120Z,5.13
2023-01-08T23:31:30.489Z,5.17
2023-01-08T23:33:58.218Z,4.83
2023-01-08T23:36:25.857Z,5.70
2023-01-08T23:38:56.716Z,4.67
2023-01-08T23:41:34.708Z,4.87
2023-01-08T23:44:13.717Z,5.57
2023-01-08T23:46:40.781Z,5.60
2023-01-08T23:49:08.362Z,5.23
2023-01-08T23:51:36.189Z,5.07
2023-01-08T23:54:03.652Z,4.90
2023-01-08T23:56:31.541Z,4.40
2023-01-08T23:58:59.019Z,5.07
